Time;durP1;ratioP1;P1;durP2;ratioP2;P2;SDS_P1;SDS_P2;PMS_P1;PMS_P2;Temp;Humidity;BMP_temperature;BMP_pressure;BME280_temperature;BME280_humidity;BME280_pressure;Samples;Min_cycle;Max_cycle;Signal;HPM_P1;HPM_P2
2023/06/16 00:01:40;;;;;;;0.40;0.40;;;17.10;99.90;;;;;;5116571;28;20032;-70
2023/06/16 00:04:06;;;;;;;0.40;0.40;;;17.00;99.90;;;;;;5116507;28;20139;-70
2023/06/16 00:06:31;;;;;;;0.30;0.30;;;17.00;99.90;;;;;;5116455;28;20048;-70
2023/06/16 00:08:58;;;;;;;0.40;0.40;;;16.90;99.90;;;;;;5116435;28;20122;-70
2023/06/16 00:11:28;;;;;;;0.40;0.40;;;16.90;99.90;;;;;;5115887;28;20373;-71
2023/06/16 00:13:55;;;;;;;0.43;0.43;;;16.90;99.90;;;;;;5116234;28;20039;-70
2023/06/16 00:16:23;;;;;;;0.40;0.40;;;16.80;99.90;;;;;;5115916;28;20036;-70
2023/06/16 00:18:51;;;;;;;0.50;0.50;;;16.80;99.90;;;;;;5116046;28;20047;-70
2023/06/16 00:21:35;;;;;;;0.40;0.40;;;16.70;99.90;;;;;;5116288;28;20395;-70
2023/06/16 00:24:01;;;;;;;0.43;0.43;;;16.70;99.90;;;;;;5116548;28;20865;-70
2023/06/16 00:26:27;;;;;;;0.40;0.40;;;16.70;99.90;;;;;;5115895;28;20036;-70
2023/06/16 00:28:53;;;;;;;0.30;0.30;;;16.60;99.90;;;;;;5115900;28;20043;-70
2023/06/16 00:31:19;;;;;;;0.33;0.33;;;16.50;99.90;;;;;;5116177;28;20093;-69
2023/06/16 00:33:44;;;;;;;1.80;0.47;;;16.50;99.90;;;;;;5115959;28;20411;-70
2023/06/16 00:36:10;;;;;;;0.30;0.30;;;16.40;99.90;;;;;;5115888;28;20039;-70
2023/06/16 00:38:36;;;;;;;0.47;0.47;;;16.30;99.90;;;;;;5115653;28;20035;-69
2023/06/16 00:41:01;;;;;;;0.40;0.40;;;16.30;99.90;;;;;;5115643;28;20039;-70
2023/06/16 00:43:27;;;;;;;0.30;0.30;;;16.30;99.90;;;;;;5115678;28;20420;-70
2023/06/16 00:45:53;;;;;;;0.30;0.30;;;16.30;99.90;;;;;;5116008;28;20067;-70
2023/06/16 00:48:20;;;;;;;0.30;0.30;;;16.20;99.90;;;;;;5115590;28;20459;-69
2023/06/16 00:50:46;;;;;;;;;;;16.10;99.90;;;;;;5115988;28;20122;-70
2023/06/16 00:53:12;;;;;;;0.30;0.30;;;16.10;99.90;;;;;;5115380;28;20370;-70
2023/06/16 00:55:37;;;;;;;0.30;0.30;;;16.00;99.90;;;;;;5115431;28;20043;-70
2023/06/16 00:58:04;;;;;;;0.40;0.40;;;16.10;99.90;;;;;;5115658;28;20490;-69
2023/06/16 01:00:36;;;;;;;0.30;0.30;;;16.00;99.90;;;;;;5115499;28;20044;-70
2023/06/16 01:03:05;;;;;;;0.40;0.40;;;15.90;99.90;;;;;;5115349;28;20119;-70
2023/06/16 01:05:33;;;;;;;0.30;0.30;;;15.90;99.90;;;;;;5115019;28;20498;-69
2023/06/16 01:08:11;;;;;;;0.32;0.32;;;15.80;99.90;;;;;;5115225;28;20042;-69
2023/06/16 01:10:44;;;;;;;0.30;0.30;;;15.80;99.90;;;;;;5115416;28;20496;-69
2023/06/16 01:13:20;;;;;;;0.38;0.38;;;15.70;99.90;;;;;;5115130;28;20047;-70
2023/06/16 01:15:46;;;;;;;0.30;0.30;;;15.70;99.90;;;;;;5115236;28;20047;-69
2023/06/16 01:18:17;;;;;;;0.30;0.30;;;15.60;99.90;;;;;;5114859;28;20046;-69
2023/06/16 01:21:10;;;;;;;0.50;0.50;;;15.70;99.90;;;;;;5114975;28;20039;-70
2023/06/16 01:24:02;;;;;;;0.40;0.40;;;15.60;99.90;;;;;;5114267;28;20047;-70
2023/06/16 01:26:31;;;;;;;0.30;0.30;;;15.50;99.90;;;;;;5113671;28;20047;-70
2023/06/16 01:29:00;;;;;;;0.38;0.38;;;15.50;99.90;;;;;;5114568;28;20498;-70
2023/06/16 01:31:28;;;;;;;0.40;0.40;;;15.50;99.90;;;;;;5114793;28;20042;-70
2023/06/16 01:33:55;;;;;;;0.30;0.30;;;15.40;99.90;;;;;;5114787;28;20043;-70
2023/06/16 01:36:21;;;;;;;0.30;0.30;;;15.50;99.90;;;;;;5114718;28;20414;-69
2023/06/16 01:38:48;;;;;;;0.63;0.52;;;15.30;99.90;;;;;;5114590;28;20038;-69
2023/06/16 01:41:18;;;;;;;0.30;0.30;;;15.30;99.90;;;;;;5114579;28;20047;-70
2023/06/16 01:43:45;;;;;;;0.30;0.30;;;15.30;99.90;;;;;;5114486;28;20050;-70
2023/06/16 01:46:12;;;;;;;;;;;15.20;99.90;;;;;;5114843;28;20047;-69
2023/06/16 01:48:38;;;;;;;0.43;0.40;;;15.20;99.90;;;;;;5113750;28;19915;-69
2023/06/16 01:51:03;;;;;;;0.30;0.30;;;15.10;99.90;;;;;;5114652;28;20065;-70
2023/06/16 01:53:29;;;;;;;0.30;0.30;;;15.10;99.90;;;;;;5114423;28;20047;-69
2023/06/16 01:55:54;;;;;;;0.30;0.30;;;15.00;99.90;;;;;;5113135;28;20429;-70
2023/06/16 01:58:23;;;;;;;0.40;0.40;;;15.10;99.90;;;;;;5113112;28;20074;-69
2023/06/16 02:00:57;;;;;;;0.30;0.30;;;15.10;99.90;;;;;;5114318;28;20118;-70
2023/06/16 02:03:35;;;;;;;0.38;0.38;;;15.00;99.90;;;;;;5114491;27;20043;-70
2023/06/16 02:06:05;;;;;;;0.40;0.40;;;15.00;99.90;;;;;;5114837;28;20056;-69
2023/06/16 02:08:32;;;;;;;0.40;0.40;;;14.90;99.90;;;;;;5113934;28;20615;-70
2023/06/16 02:10:58;;;;;;;;;;;14.90;99.90;;;;;;5114640;28;20127;-70
2023/06/16 02:13:25;;;;;;;0.30;0.30;;;14.90;99.90;;;;;;5114113;28;20336;-70
2023/06/16 02:15:51;;;;;;;0.40;0.40;;;14.80;99.90;;;;;;5114179;28;20131;-70
2023/06/16 02:18:27;;;;;;;0.83;0.83;;;14.80;99.90;;;;;;5114104;28;20043;-69
2023/06/16 02:20:56;;;;;;;0.40;0.40;;;14.80;99.90;;;;;;5114118;28;20089;-69
2023/06/16 02:23:22;;;;;;;0.40;0.40;;;14.70;99.90;;;;;;5114075;28;20387;-70
2023/06/16 02:25:47;;;;;;;0.40;0.40;;;14.70;99.90;;;;;;5114081;28;20040;-69
2023/06/16 02:28:13;;;;;;;0.40;0.40;;;14.60;99.90;;;;;;5114031;28;20130;-70
2023/06/16 02:30:38;;;;;;;0.40;0.40;;;14.60;99.90;;;;;;5114035;28;20055;-70
2023/06/16 02:33:04;;;;;;;0.40;0.40;;;14.60;99.90;;;;;;5114054;28;20475;-70
2023/06/16 02:35:30;;;;;;;0.50;0.50;;;14.60;99.90;;;;;;5117731;28;20085;-70
2023/06/16 02:37:55;;;;;;;0.40;0.40;;;14.50;99.90;;;;;;5118119;28;20118;-70
2023/06/16 02:40:21;;;;;;;0.40;0.40;;;14.50;99.90;;;;;;5118026;28;20047;-70
2023/06/16 02:42:48;;;;;;;0.40;0.40;;;14.40;99.90;;;;;;5118176;28;20032;-70
2023/06/16 02:45:14;;;;;;;0.40;0.40;;;14.40;99.90;;;;;;5118209;28;20075;-69
2023/06/16 02:47:40;;;;;;;0.50;0.50;;;14.40;99.90;;;;;;5117916;28;20050;-70
2023/06/16 02:50:10;;;;;;;0.40;0.40;;;14.30;99.90;;;;;;5117874;28;20031;-70
2023/06/16 02:52:35;;;;;;;0.40;0.40;;;14.30;99.90;;;;;;5117799;28;20176;-69
2023/06/16 02:55:01;;;;;;;0.53;0.53;;;14.30;99.90;;;;;;5117804;28;20122;-69
2023/06/16 02:57:27;;;;;;;0.88;0.88;;;14.30;99.90;;;;;;5117735;28;20047;-69
2023/06/16 02:59:55;;;;;;;0.40;0.40;;;14.30;99.90;;;;;;5117628;28;20035;-69
2023/06/16 03:02:21;;;;;;;0.40;0.40;;;14.30;99.90;;;;;;5117424;28;20140;-70
2023/06/16 03:04:46;;;;;;;0.60;0.60;;;14.30;99.90;;;;;;5117275;28;20453;-70
2023/06/16 03:07:12;;;;;;;0.50;0.50;;;14.20;99.90;;;;;;5117524;28;20048;-69
2023/06/16 03:09:38;;;;;;;0.40;0.40;;;14.20;99.90;;;;;;5117337;28;20135;-69
2023/06/16 03:12:04;;;;;;;0.50;0.50;;;14.10;99.90;;;;;;5117661;28;20122;-70
2023/06/16 03:14:32;;;;;;;0.65;0.50;;;14.10;99.90;;;;;;5117393;28;20044;-70
2023/06/16 03:16:58;;;;;;;0.40;0.40;;;14.10;99.90;;;;;;5117486;28;20036;-70
2023/06/16 03:19:23;;;;;;;0.50;0.50;;;14.10;99.90;;;;;;5117236;28;20038;-70
2023/06/16 03:21:50;;;;;;;0.50;0.50;;;14.00;99.90;;;;;;5117332;28;20043;-70
2023/06/16 03:24:19;;;;;;;0.73;0.73;;;14.50;99.90;;;;;;5117250;28;20049;-70
2023/06/16 03:26:47;;;;;;;0.40;0.40;;;14.00;99.90;;;;;;5116039;28;20348;-69
2023/06/16 03:29:13;;;;;;;1.38;1.25;;;14.10;99.90;;;;;;5117127;28;20035;-70
2023/06/16 03:31:39;;;;;;;0.40;0.40;;;14.00;99.90;;;;;;5117125;28;20043;-69
2023/06/16 03:34:05;;;;;;;0.40;0.40;;;14.00;99.90;;;;;;5117012;28;20039;-69
2023/06/16 03:36:35;;;;;;;0.50;0.50;;;14.20;99.90;;;;;;5116728;28;20482;-69
2023/06/16 03:39:05;;;;;;;0.50;0.50;;;13.90;99.90;;;;;;5116937;28;20370;-69
2023/06/16 03:41:33;;;;;;;0.40;0.40;;;13.90;99.90;;;;;;5116936;28;20399;-70
2023/06/16 03:43:59;;;;;;;0.40;0.40;;;13.90;99.90;;;;;;5116894;28;20379;-69
2023/06/16 03:46:26;;;;;;;0.70;0.70;;;13.90;99.90;;;;;;5116108;28;20043;-70
2023/06/16 03:48:51;;;;;;;0.50;0.50;;;13.90;99.90;;;;;;5116847;28;20438;-69
2023/06/16 03:51:17;;;;;;;2.80;1.05;;;13.90;99.90;;;;;;5116709;28;20045;-69
2023/06/16 03:53:43;;;;;;;0.50;0.50;;;13.80;99.90;;;;;;5116546;28;20043;-69
2023/06/16 03:56:09;;;;;;;0.43;0.43;;;13.80;99.90;;;;;;5116534;28;20043;-70
2023/06/16 03:58:35;;;;;;;0.60;0.60;;;13.80;99.90;;;;;;5116706;28;20130;-69
2023/06/16 04:01:02;;;;;;;0.50;0.50;;;13.90;99.90;;;;;;5116603;28;20050;-70
2023/06/16 04:03:27;;;;;;;0.50;0.50;;;13.90;99.90;;;;;;5116664;28;20035;-70
2023/06/16 04:05:53;;;;;;;0.77;0.77;;;13.90;99.90;;;;;;5116211;28;20542;-69
2023/06/16 04:08:20;;;;;;;0.50;0.50;;;14.00;99.90;;;;;;5116278;28;20043;-70
2023/06/16 04:10:46;;;;;;;0.50;0.50;;;14.00;99.90;;;;;;5116298;28;20122;-69
2023/06/16 04:13:12;;;;;;;0.50;0.50;;;14.00;99.90;;;;;;5116324;28;20123;-70
2023/06/16 04:15:37;;;;;;;0.50;0.50;;;14.00;99.90;;;;;;5116301;28;20140;-69
2023/06/16 04:18:03;;;;;;;0.50;0.50;;;14.10;99.90;;;;;;5116557;28;20040;-70
2023/06/16 04:20:28;;;;;;;0.50;0.50;;;14.10;99.90;;;;;;5116208;28;20047;-70
2023/06/16 04:22:54;;;;;;;0.60;0.60;;;14.10;99.90;;;;;;5116098;28;20383;-69
2023/06/16 04:25:21;;;;;;;0.50;0.50;;;14.10;99.90;;;;;;5116086;28;20044;-70
2023/06/16 04:27:49;;;;;;;0.82;0.82;;;14.20;99.90;;;;;;5116005;28;20088;-70
2023/06/16 04:30:20;;;;;;;0.77;0.75;;;14.20;99.90;;;;;;5116012;28;20071;-70
2023/06/16 04:32:46;;;;;;;0.60;0.60;;;14.20;99.90;;;;;;5115945;28;20040;-70
2023/06/16 04:35:11;;;;;;;0.60;0.60;;;14.20;99.90;;;;;;5114659;28;20118;-69
2023/06/16 04:37:37;;;;;;;0.60;0.60;;;14.30;99.90;;;;;;5116342;28;20050;-70
2023/06/16 04:40:05;;;;;;;0.60;0.60;;;14.30;99.90;;;;;;5114562;28;20043;-70
2023/06/16 04:42:30;;;;;;;0.57;0.57;;;14.40;99.90;;;;;;5114972;28;20036;-69
2023/06/16 04:44:57;;;;;;;0.60;0.60;;;14.40;99.90;;;;;;5114760;28;20039;-69
2023/06/16 04:47:23;;;;;;;0.50;0.50;;;14.50;99.90;;;;;;5115516;28;20039;-70
2023/06/16 04:49:49;;;;;;;0.50;0.50;;;14.50;99.90;;;;;;5115579;28;20038;-70
2023/06/16 04:52:15;;;;;;;0.60;0.60;;;14.50;99.90;;;;;;5115587;28;20093;-70
2023/06/16 04:54:41;;;;;;;0.60;0.60;;;14.50;99.90;;;;;;5115769;28;20414;-69
2023/06/16 04:57:07;;;;;;;0.50;0.50;;;14.60;99.90;;;;;;5114619;28;20138;-70
2023/06/16 04:59:33;;;;;;;0.60;0.60;;;14.60;99.90;;;;;;5115137;28;20039;-69
2023/06/16 05:01:59;;;;;;;0.60;0.60;;;14.60;99.90;;;;;;5115271;28;20039;-70
2023/06/16 05:04:24;;;;;;;0.50;0.50;;;14.70;99.90;;;;;;5115666;28;20067;-70
2023/06/16 05:06:50;;;;;;;0.50;0.50;;;14.80;99.90;;;;;;5115189;28;20398;-70
2023/06/16 05:09:16;;;;;;;0.50;0.50;;;15.00;99.90;;;;;;5115189;28;20031;-70
2023/06/16 05:11:42;;;;;;;0.40;0.40;;;14.80;99.90;;;;;;5115134;28;20054;-70
2023/06/16 05:14:08;;;;;;;0.50;0.50;;;15.10;99.90;;;;;;5115015;28;20464;-70
2023/06/16 05:16:34;;;;;;;0.50;0.50;;;14.90;99.90;;;;;;5114053;28;20051;-69
2023/06/16 05:18:59;;;;;;;0.50;0.50;;;15.00;99.90;;;;;;5113889;28;20051;-69
2023/06/16 05:21:25;;;;;;;0.50;0.50;;;15.10;99.90;;;;;;5114090;28;20039;-70
2023/06/16 05:23:52;;;;;;;0.50;0.50;;;15.20;99.90;;;;;;5115198;28;20081;-70
2023/06/16 05:26:20;;;;;;;0.50;0.50;;;15.50;99.90;;;;;;5114830;28;20046;-70
2023/06/16 05:28:46;;;;;;;0.47;0.47;;;15.80;99.90;;;;;;5114532;28;20484;-70
2023/06/16 05:31:13;;;;;;;0.40;0.40;;;16.10;99.90;;;;;;5114737;28;20061;-70
2023/06/16 05:33:38;;;;;;;0.40;0.40;;;16.50;99.90;;;;;;5115568;27;20047;-69
2023/06/16 05:36:04;;;;;;;0.50;0.50;;;16.80;99.90;;;;;;5113805;28;20061;-69
2023/06/16 05:38:30;;;;;;;0.40;0.40;;;17.30;99.90;;;;;;5114562;28;20039;-70
2023/06/16 05:40:56;;;;;;;0.40;0.40;;;17.70;99.90;;;;;;5114365;28;20540;-69
2023/06/16 05:43:21;;;;;;;0.50;0.50;;;18.10;99.90;;;;;;5114628;28;20039;-70
2023/06/16 05:45:47;;;;;;;0.50;0.50;;;18.50;99.90;;;;;;5114497;28;20035;-70
2023/06/16 05:48:12;;;;;;;0.63;0.63;;;18.80;99.90;;;;;;5114231;28;20043;-70
2023/06/16 05:50:38;;;;;;;0.40;0.40;;;19.10;99.90;;;;;;5114814;28;20043;-70
2023/06/16 05:53:04;;;;;;;0.40;0.40;;;19.40;99.90;;;;;;5114533;28;20352;-70
2023/06/16 05:55:30;;;;;;;0.47;0.47;;;19.60;99.90;;;;;;5114510;28;20047;-70
2023/06/16 05:57:56;;;;;;;0.30;0.30;;;19.90;99.90;;;;;;5114395;28;20080;-70
2023/06/16 06:00:21;;;;;;;0.30;0.30;;;20.10;99.90;;;;;;5114265;28;20448;-71
2023/06/16 06:02:47;;;;;;;0.33;0.33;;;20.10;99.90;;;;;;5114474;28;20130;-70
2023/06/16 06:05:13;;;;;;;0.30;0.30;;;20.40;99.90;;;;;;5113414;28;20043;-70
2023/06/16 06:07:38;;;;;;;0.30;0.30;;;20.60;99.90;;;;;;5114211;28;20059;-70
2023/06/16 06:10:04;;;;;;;0.30;0.30;;;20.70;99.90;;;;;;5113807;28;20042;-70
2023/06/16 06:12:30;;;;;;;0.40;0.40;;;20.60;99.90;;;;;;5114263;28;20047;-70
2023/06/16 06:14:56;;;;;;;1.33;1.23;;;20.50;99.90;;;;;;5114117;28;20281;-70
2023/06/16 06:17:21;;;;;;;0.30;0.30;;;20.30;99.90;;;;;;5114136;28;20044;-69
2023/06/16 06:19:47;;;;;;;0.30;0.30;;;20.30;99.90;;;;;;5114859;28;20144;-69
2023/06/16 06:22:13;;;;;;;1.03;0.93;;;20.30;99.90;;;;;;5114382;28;20088;-69
2023/06/16 06:24:38;;;;;;;0.30;0.30;;;20.40;99.90;;;;;;5113738;28;20040;-69
2023/06/16 06:27:04;;;;;;;0.30;0.30;;;20.70;99.90;;;;;;5114230;28;20041;-70
2023/06/16 06:29:30;;;;;;;0.35;0.35;;;20.90;99.90;;;;;;5114100;28;20039;-69
2023/06/16 06:31:56;;;;;;;0.30;0.30;;;21.00;99.90;;;;;;5113768;28;20471;-70
2023/06/16 06:34:21;;;;;;;0.50;0.50;;;21.00;99.90;;;;;;5113745;28;20039;-70
2023/06/16 06:36:47;;;;;;;0.30;0.30;;;21.00;99.90;;;;;;5113978;28;20126;-70
2023/06/16 06:39:13;;;;;;;0.73;0.73;;;21.20;99.90;;;;;;5113834;28;20114;-69
2023/06/16 06:41:40;;;;;;;0.30;0.30;;;21.20;99.90;;;;;;5113789;28;20290;-69
2023/06/16 06:44:06;;;;;;;0.38;0.38;;;21.40;99.90;;;;;;5113980;28;20039;-70
2023/06/16 06:46:31;;;;;;;0.40;0.40;;;21.30;99.90;;;;;;5113890;28;20483;-70
2023/06/16 06:48:57;;;;;;;0.50;0.50;;;21.30;99.90;;;;;;5113773;28;20119;-70
2023/06/16 06:51:23;;;;;;;0.30;0.30;;;21.30;99.90;;;;;;5113877;28;20047;-70
2023/06/16 06:53:49;;;;;;;0.30;0.30;;;21.20;99.90;;;;;;5114142;28;20276;-70
2023/06/16 06:56:15;;;;;;;0.40;0.40;;;21.30;99.90;;;;;;5113833;28;20467;-70
2023/06/16 06:58:41;;;;;;;0.50;0.50;;;21.40;99.90;;;;;;5113707;28;20075;-70
2023/06/16 07:01:06;;;;;;;0.40;0.40;;;21.40;99.90;;;;;;5114182;28;20477;-70
2023/06/16 07:03:32;;;;;;;0.40;0.40;;;21.60;99.90;;;;;;5112526;28;20044;-70
2023/06/16 07:05:58;;;;;;;0.30;0.30;;;21.70;99.90;;;;;;5113680;28;20136;-70
2023/06/16 07:08:23;;;;;;;0.43;0.43;;;21.70;99.90;;;;;;5113960;28;20083;-70
2023/06/16 07:10:49;;;;;;;0.30;0.30;;;21.90;99.90;;;;;;5113517;28;20074;-70
2023/06/16 07:13:15;;;;;;;0.30;0.30;;;22.00;99.90;;;;;;5113683;28;20036;-70
2023/06/16 07:15:41;;;;;;;0.30;0.30;;;22.10;99.90;;;;;;5113537;28;20046;-70
2023/06/16 07:18:07;;;;;;;0.30;0.30;;;22.10;99.90;;;;;;5113707;28;20031;-70
2023/06/16 07:20:32;;;;;;;0.30;0.30;;;22.10;99.90;;;;;;5113960;28;20489;-70
2023/06/16 07:22:58;;;;;;;0.70;0.70;;;22.20;99.90;;;;;;5117329;28;20391;-70
2023/06/16 07:25:24;;;;;;;0.20;0.20;;;22.10;99.90;;;;;;5116064;28;20039;-70
2023/06/16 07:27:49;;;;;;;0.57;0.50;;;22.20;99.90;;;;;;5117178;28;20040;-70
2023/06/16 07:30:15;;;;;;;1.00;0.63;;;22.00;99.90;;;;;;5116743;28;20031;-70
2023/06/16 07:32:41;;;;;;;0.40;0.40;;;22.00;99.90;;;;;;5117251;28;20126;-70
2023/06/16 07:35:08;;;;;;;0.40;0.40;;;22.00;99.90;;;;;;5116974;28;20379;-70
2023/06/16 07:37:34;;;;;;;0.30;0.30;;;22.10;99.90;;;;;;5117023;28;20047;-70
2023/06/16 07:39:59;;;;;;;0.40;0.40;;;22.30;99.90;;;;;;5115842;28;20048;-70
2023/06/16 07:42:25;;;;;;;0.40;0.40;;;22.40;99.90;;;;;;5117010;28;20043;-70
2023/06/16 07:44:52;;;;;;;0.30;0.30;;;22.70;99.90;;;;;;5116855;28;20040;-70
2023/06/16 07:47:17;;;;;;;0.40;0.40;;;22.80;99.90;;;;;;5116821;28;20093;-70
2023/06/16 07:49:43;;;;;;;0.40;0.40;;;22.80;99.90;;;;;;5116773;28;20413;-70
2023/06/16 07:52:09;;;;;;;1.07;0.90;;;22.90;99.90;;;;;;5116811;28;20040;-70
2023/06/16 07:54:35;;;;;;;0.30;0.30;;;22.80;99.90;;;;;;5116695;28;20075;-70
2023/06/16 07:57:00;;;;;;;0.20;0.20;;;22.90;99.90;;;;;;5116628;28;20450;-70
2023/06/16 07:59:26;;;;;;;0.30;0.30;;;23.00;99.90;;;;;;5116491;28;20043;-70
2023/06/16 08:01:52;;;;;;;0.45;0.45;;;23.10;99.60;;;;;;5116496;28;20046;-70
2023/06/16 08:04:18;;;;;;;0.33;0.33;;;23.10;98.90;;;;;;5116326;28;20464;-70
2023/06/16 08:06:43;;;;;;;0.20;0.20;;;23.20;99.50;;;;;;5116669;28;20096;-70
2023/06/16 08:09:10;;;;;;;0.20;0.20;;;23.30;99.20;;;;;;5116444;28;20663;-70
2023/06/16 08:11:35;;;;;;;0.30;0.30;;;23.30;99.70;;;;;;5116297;28;20032;-70
2023/06/16 08:14:01;;;;;;;0.30;0.30;;;23.40;99.50;;;;;;5116129;28;20042;-70
2023/06/16 08:16:27;;;;;;;0.30;0.30;;;23.50;99.30;;;;;;5116676;28;20162;-70
2023/06/16 08:18:56;;;;;;;0.23;0.23;;;23.60;99.50;;;;;;5116165;28;20118;-70
2023/06/16 08:21:22;;;;;;;0.35;0.35;;;23.60;99.40;;;;;;5116215;28;20039;-70
2023/06/16 08:23:48;;;;;;;0.30;0.30;;;23.70;99.10;;;;;;5116093;28;20467;-70
2023/06/16 08:26:13;;;;;;;0.30;0.30;;;23.80;98.70;;;;;;5116451;28;20031;-70
2023/06/16 08:28:39;;;;;;;0.37;0.37;;;24.00;98.90;;;;;;5116033;28;20396;-70
2023/06/16 08:31:05;;;;;;;0.20;0.20;;;24.10;98.40;;;;;;5115948;28;20043;-70
2023/06/16 08:33:32;;;;;;;0.20;0.20;;;24.20;98.20;;;;;;5115666;28;20554;-70
2023/06/16 08:35:57;;;;;;;0.30;0.30;;;24.20;98.20;;;;;;5115823;28;20086;-70
2023/06/16 08:38:23;;;;;;;0.40;0.40;;;24.30;97.50;;;;;;5115702;28;20071;-70
2023/06/16 08:40:49;;;;;;;0.50;0.50;;;24.20;97.50;;;;;;5115772;28;20071;-70
2023/06/16 08:43:16;;;;;;;0.40;0.40;;;24.30;97.30;;;;;;5115684;28;20435;-70
2023/06/16 08:45:44;;;;;;;0.45;0.45;;;24.40;96.80;;;;;;5115278;28;20472;-70
2023/06/16 08:48:11;;;;;;;0.43;0.43;;;24.50;97.30;;;;;;5115634;28;20075;-70
2023/06/16 08:50:37;;;;;;;0.40;0.40;;;24.60;97.40;;;;;;5115574;28;20046;-70
2023/06/16 08:53:08;;;;;;;0.40;0.40;;;24.70;96.20;;;;;;5115530;28;20035;-70
2023/06/16 08:55:35;;;;;;;0.40;0.40;;;24.80;96.90;;;;;;5115504;28;20032;-71
2023/06/16 08:58:01;;;;;;;1.33;0.85;;;24.90;96.30;;;;;;5115344;28;20047;-69
2023/06/16 09:00:30;;;;;;;0.40;0.40;;;25.00;96.60;;;;;;5115812;28;20341;-70
2023/06/16 09:02:56;;;;;;;0.50;0.50;;;25.00;95.90;;;;;;5115664;28;20460;-70
2023/06/16 09:05:24;;;;;;;0.60;0.60;;;24.90;95.00;;;;;;5115299;28;20052;-70
2023/06/16 09:07:50;;;;;;;0.40;0.40;;;24.90;95.40;;;;;;5115145;28;20103;-70
2023/06/16 09:10:16;;;;;;;0.97;0.67;;;25.00;95.60;;;;;;5115155;28;20039;-69
2023/06/16 09:12:42;;;;;;;0.40;0.40;;;25.00;95.40;;;;;;5115168;28;20039;-70
2023/06/16 09:15:10;;;;;;;0.30;0.30;;;25.10;95.70;;;;;;5113915;28;20047;-70
2023/06/16 09:17:37;;;;;;;0.40;0.40;;;25.20;95.90;;;;;;5115062;28;20380;-70
2023/06/16 09:20:06;;;;;;;0.30;0.30;;;25.40;95.60;;;;;;5114980;28;20386;-70
2023/06/16 09:22:32;;;;;;;0.30;0.30;;;25.40;94.80;;;;;;5115211;28;20044;-70
2023/06/16 09:24:59;;;;;;;;;;;25.40;95.60;;;;;;5115362;28;20126;-70
2023/06/16 09:27:44;;;;;;;0.40;0.40;;;25.40;94.80;;;;;;5114855;28;19922;-70
2023/06/16 09:30:13;;;;;;;0.30;0.30;;;25.50;95.20;;;;;;5114871;28;20471;-70
2023/06/16 09:32:39;;;;;;;0.43;0.43;;;25.40;94.80;;;;;;5114837;28;20079;-70
2023/06/16 09:35:19;;;;;;;1.10;0.55;;;25.50;95.30;;;;;;5114752;28;20047;-70
2023/06/16 09:37:49;;;;;;;0.40;0.40;;;25.60;94.90;;;;;;5114795;28;20046;-70
2023/06/16 09:40:16;;;;;;;0.30;0.30;;;25.60;94.80;;;;;;5114582;28;20044;-70
2023/06/16 09:42:43;;;;;;;0.30;0.30;;;25.70;95.00;;;;;;5114489;28;20043;-70
2023/06/16 09:45:13;;;;;;;0.40;0.40;;;25.70;94.40;;;;;;5113918;28;20365;-71
2023/06/16 09:47:44;;;;;;;0.40;0.40;;;25.70;94.30;;;;;;5115170;28;20039;-70
2023/06/16 09:50:15;;;;;;;0.30;0.30;;;25.90;94.40;;;;;;5114490;28;20042;-70
2023/06/16 09:52:45;;;;;;;0.40;0.40;;;26.10;94.10;;;;;;5114557;28;20039;-71
2023/06/16 09:55:12;;;;;;;0.30;0.30;;;26.20;94.10;;;;;;5114771;28;20069;-70
2023/06/16 09:57:40;;;;;;;0.50;0.50;;;26.30;94.00;;;;;;5114454;28;20043;-70
2023/06/16 10:00:15;;;;;;;0.57;0.57;;;26.40;93.80;;;;;;5114277;28;20042;-69
2023/06/16 10:02:46;;;;;;;2.05;0.73;;;26.40;93.80;;;;;;5114476;28;20344;-70
2023/06/16 10:05:17;;;;;;;0.95;0.85;;;26.40;93.70;;;;;;5114024;28;20051;-70
2023/06/16 10:07:49;;;;;;;0.30;0.30;;;26.40;92.80;;;;;;5114343;28;20092;-70
2023/06/16 10:10:16;;;;;;;2.75;2.55;;;26.40;93.00;;;;;;5114335;28;20035;-70
2023/06/16 10:12:46;;;;;;;0.40;0.40;;;26.40;93.30;;;;;;5114215;28;20043;-70
2023/06/16 10:15:18;;;;;;;0.30;0.30;;;26.40;93.00;;;;;;5113918;28;20424;-71
2023/06/16 10:17:47;;;;;;;1.10;1.00;;;26.60;93.50;;;;;;5114187;28;20092;-70
2023/06/16 10:20:15;;;;;;;0.40;0.40;;;26.50;92.20;;;;;;5114105;28;20035;-71
2023/06/16 10:22:41;;;;;;;0.30;0.30;;;26.60;92.60;;;;;;5114007;28;20036;-70
2023/06/16 10:25:07;;;;;;;1.58;1.48;;;26.60;92.20;;;;;;5114115;28;20126;-70
2023/06/16 10:27:33;;;;;;;0.30;0.30;;;26.70;93.00;;;;;;5114182;28;20420;-70
2023/06/16 10:30:01;;;;;;;1.65;0.47;;;26.90;92.80;;;;;;5114132;28;20040;-71
2023/06/16 10:32:26;;;;;;;0.40;0.40;;;27.00;91.30;;;;;;5114031;28;20050;-71
2023/06/16 10:34:56;;;;;;;0.30;0.30;;;26.80;91.10;;;;;;5114007;28;20039;-71
2023/06/16 10:37:25;;;;;;;0.32;0.32;;;26.60;91.40;;;;;;5114020;28;20035;-70
2023/06/16 10:39:56;;;;;;;0.47;0.47;;;26.70;91.80;;;;;;5113873;28;20047;-70
2023/06/16 10:42:21;;;;;;;0.30;0.30;;;26.80;91.80;;;;;;5114107;28;20083;-70
2023/06/16 10:44:47;;;;;;;0.47;0.47;;;26.90;91.40;;;;;;5113923;28;20434;-71
2023/06/16 10:47:26;;;;;;;0.30;0.30;;;26.90;90.70;;;;;;5114371;28;20269;-70
2023/06/16 10:50:02;;;;;;;0.30;0.30;;;27.00;91.70;;;;;;5114005;28;20078;-70
2023/06/16 10:52:51;;;;;;;0.20;0.20;;;27.00;89.80;;;;;;5113686;28;20047;-70
2023/06/16 10:55:17;;;;;;;1.17;0.95;;;27.10;88.80;;;;;;5115452;28;20079;-71
2023/06/16 10:57:44;;;;;;;0.40;0.40;;;27.10;89.60;;;;;;5117789;27;20043;-71
2023/06/16 11:00:12;;;;;;;;;;;27.00;87.80;;;;;;5118103;28;20078;-70
2023/06/16 11:02:50;;;;;;;0.50;0.50;;;27.00;87.50;;;;;;5117559;28;19919;-70
2023/06/16 11:05:18;;;;;;;0.47;0.40;;;27.00;84.00;;;;;;5117358;28;20083;-70
2023/06/16 11:07:57;;;;;;;0.30;0.30;;;27.20;84.60;;;;;;5117312;28;20506;-70
2023/06/16 11:10:24;;;;;;;0.30;0.30;;;27.30;83.00;;;;;;5117958;28;20047;-70
2023/06/16 11:12:50;;;;;;;0.20;0.20;;;27.40;82.20;;;;;;5117459;28;20051;-70
2023/06/16 11:15:18;;;;;;;0.35;0.35;;;27.50;82.80;;;;;;5117520;28;20113;-71
2023/06/16 11:17:44;;;;;;;0.40;0.40;;;27.70;83.70;;;;;;5117567;28;20062;-71
2023/06/16 11:20:12;;;;;;;;;;;27.50;81.10;;;;;;5117656;28;20085;-71
2023/06/16 11:22:38;;;;;;;1.13;0.52;;;27.50;81.70;;;;;;5117770;27;19927;-70
2023/06/16 11:25:04;;;;;;;0.20;0.20;;;27.60;81.70;;;;;;5117649;28;20383;-69
2023/06/16 11:27:31;;;;;;;1.27;0.45;;;27.70;82.30;;;;;;5117477;28;20284;-71
2023/06/16 11:29:58;;;;;;;0.47;0.47;;;27.70;78.60;;;;;;5117175;27;20406;-70
2023/06/16 11:32:25;;;;;;;0.30;0.30;;;27.70;78.70;;;;;;5116785;28;20478;-71
2023/06/16 11:34:53;;;;;;;0.30;0.30;;;27.70;76.30;;;;;;5117015;28;20046;-69
2023/06/16 11:37:18;;;;;;;0.20;0.20;;;27.90;78.40;;;;;;5117065;28;20036;-70
2023/06/16 11:39:44;;;;;;;0.20;0.20;;;27.60;75.10;;;;;;5116991;28;20035;-70
2023/06/16 11:42:14;;;;;;;0.30;0.30;;;27.70;78.30;;;;;;5116911;28;20757;-70
2023/06/16 11:44:40;;;;;;;0.52;0.52;;;27.50;74.70;;;;;;5116909;28;20055;-70
2023/06/16 11:47:06;;;;;;;0.57;0.50;;;27.50;75.80;;;;;;5116696;28;20475;-69
2023/06/16 11:49:36;;;;;;;0.30;0.30;;;27.50;76.30;;;;;;5116729;28;20123;-70
2023/06/16 11:52:06;;;;;;;0.20;0.20;;;27.50;75.40;;;;;;5116964;28;20122;-70
2023/06/16 11:54:33;;;;;;;0.30;0.30;;;27.60;77.30;;;;;;5116705;28;20044;-71
2023/06/16 11:57:01;;;;;;;0.60;0.60;;;27.70;76.80;;;;;;5116526;28;20495;-70
2023/06/16 11:59:28;;;;;;;0.40;0.40;;;27.60;76.70;;;;;;5115416;28;20047;-70
2023/06/16 12:02:03;;;;;;;0.40;0.40;;;27.70;77.50;;;;;;5116587;28;20113;-70
2023/06/16 12:04:31;;;;;;;0.30;0.30;;;28.00;76.90;;;;;;5116396;28;20051;-71
2023/06/16 12:06:58;;;;;;;0.30;0.30;;;28.10;78.10;;;;;;5116336;28;20421;-71
2023/06/16 12:09:36;;;;;;;0.30;0.30;;;28.30;77.30;;;;;;5116427;28;20039;-71
2023/06/16 12:12:05;;;;;;;0.30;0.30;;;28.30;75.50;;;;;;5116457;28;20085;-71
2023/06/16 12:14:35;;;;;;;0.73;0.38;;;28.40;76.50;;;;;;5116329;28;20043;-70
2023/06/16 12:17:01;;;;;;;0.30;0.30;;;28.50;74.20;;;;;;5116789;28;20035;-70
2023/06/16 12:19:27;;;;;;;0.30;0.30;;;28.40;75.20;;;;;;5116147;28;20046;-70
2023/06/16 12:22:00;;;;;;;0.40;0.40;;;28.30;74.90;;;;;;5116221;28;20039;-71
2023/06/16 12:24:26;;;;;;;0.20;0.20;;;28.50;76.40;;;;;;5116189;28;20421;-71
2023/06/16 12:26:52;;;;;;;0.30;0.30;;;28.60;77.20;;;;;;5116088;28;20035;-70
2023/06/16 12:29:18;;;;;;;0.20;0.20;;;28.50;74.30;;;;;;5115992;28;20081;-70
2023/06/16 12:32:00;;;;;;;0.20;0.20;;;28.40;74.20;;;;;;5116465;28;20043;-70
2023/06/16 12:34:26;;;;;;;0.30;0.30;;;28.40;74.10;;;;;;5116150;28;20369;-71
2023/06/16 12:36:53;;;;;;;;;;;28.40;74.70;;;;;;5116560;28;20039;-70
2023/06/16 12:39:20;;;;;;;0.30;0.30;;;28.40;74.70;;;;;;5115689;28;19922;-70
2023/06/16 12:42:03;;;;;;;0.30;0.30;;;28.40;74.90;;;;;;5115454;28;20055;-70
2023/06/16 12:45:02;;;;;;;0.30;0.30;;;28.40;74.50;;;;;;5115787;28;20039;-70
2023/06/16 12:47:35;;;;;;;0.20;0.20;;;28.40;74.60;;;;;;5070973;28;20091;-71
2023/06/16 12:50:03;;;;;;;0.40;0.30;;;28.40;74.30;;;;;;5115542;28;20037;-70